Time,TemperatureF,DewpointF,PressureIn,WindDirection,WindDirectionDegrees,WindSpeedMPH,WindSpeedGustMPH,Humidity,HourlyPrecipIn,Conditions,Clouds,dailyrainin,SoftwareType,DateUTC
2013-03-03 00:02:00,56.1,23.2,30.02,SSE,163,1.0,6.0,28,0.00,,,0.00,WUHU216DAVISVP2,2013-03-03 08:02:00,
2013-03-03 00:07:00,55.7,23.7,30.01,SSE,163,0.0,5.0,29,0.00,,,0.00,WUHU216DAVISVP2,2013-03-03 08:07:00,
2013-03-03 00:12:00,55.8,24.6,30.02,SSE,163,0.0,5.0,30,0.00,,,0.00,WUHU216DAVISVP2,2013-03-03 08:12:00,
2013-03-03 00:17:00,56.3,24.4,30.02,SSE,164,2.0,4.0,29,0.00,,,0.00,WUHU216DAVISVP2,2013-03-03 08:17:00,
2013-03-03 00:23:00,56.0,25.8,30.02,WSW,237,0.0,7.0,31,0.00,,,0.00,WUHU216DAVISVP2,2013-03-03 08:23:00,
2013-03-03 00:28:00,56.4,25.3,30.02,NW,308,3.0,7.0,30,0.00,,,0.00,WUHU216DAVISVP2,2013-03-03 08:28:00,
2013-03-03 00:33:00,57.0,25.6,30.02,NW,306,1.0,7.0,30,0.00,,,0.00,WUHU216DAVISVP2,2013-03-03 08:33:00,
2013-03-03 00:38:00,58.1,26.6,30.02,NW,306,1.0,7.0,30,0.00,,,0.00,WUHU216DAVISVP2,2013-03-03 08:38:00,
2013-03-03 00:43:00,59.3,27.6,30.02,SW,235,6.0,11.0,30,0.00,,,0.00,WUHU216DAVISVP2,2013-03-03 08:43:00,
2013-03-03 00:48:00,61.1,27.5,30.02,WNW,294,5.0,11.0,28,0.00,,,0.00,WUHU216DAVISVP2,2013-03-03 08:48:00,
2013-03-03 00:53:00,61.2,27.6,30.02,West,263,5.0,11.0,28,0.00,,,0.00,WUHU216DAVISVP2,2013-03-03 08:53:00,
2013-03-03 00:58:00,62.9,26.4,30.01,West,276,11.0,19.0,25,0.00,,,0.00,WUHU216DAVISVP2,2013-03-03 08:58:00,
2013-03-03 01:03:00,63.8,25.3,30.00,West,270,13.0,23.0,23,0.00,,,0.00,WUHU216DAVISVP2,2013-03-03 09:03:00,
2013-03-03 01:08:00,63.9,24.3,30.00,WSW,258,11.0,23.0,22,0.00,,,0.00,WUHU216DAVISVP2,2013-03-03 09:08:00,
2013-03-03 01:13:00,63.6,28.1,30.00,WSW,252,16.0,23.0,26,0.00,,,0.00,WUHU216DAVISVP2,2013-03-03 09:13:00,
2013-03-03 01:18:00,62.9,29.3,30.00,West,262,15.0,23.0,28,0.00,,,0.00,WUHU216DAVISVP2,2013-03-03 09:18:00,
2013-03-03 01:24:00,62.5,28.9,30.00,West,269,15.0,22.0,28,0.00,,,0.00,WUHU216DAVISVP2,2013-03-03 09:24:00,
2013-03-03 01:29:00,62.3,28.6,30.01,WSW,255,15.0,22.0,28,0.00,,,0.00,WUHU216DAVISVP2,2013-03-03 09:29:00,
2013-03-03 01:34:00,62.1,28.4,30.01,WSW,240,15.0,22.0,28,0.00,,,0.00,WUHU216DAVISVP2,2013-03-03 09:34:00,
2013-03-03 01:39:00,61.9,28.2,30.01,WSW,250,10.0,21.0,28,0.00,,,0.00,WUHU216DAVISVP2,2013-03-03 09:39:00,
2013-03-03 01:44:00,61.8,28.1,30.00,WSW,242,9.0,19.0,28,0.00,,,0.00,WUHU216DAVISVP2,2013-03-03 09:44:00,
2013-03-03 01:49:00,61.7,28.1,30.00,WSW,246,10.0,19.0,28,0.00,,,0.00,WUHU216DAVISVP2,2013-03-03 09:49:00,
2013-03-03 01:54:00,61.7,27.2,29.99,West,259,9.0,16.0,27,0.00,,,0.00,WUHU216DAVISVP2,2013-03-03 09:54:00,
2013-03-03 01:59:00,61.6,27.1,29.99,WSW,249,10.0,15.0,27,0.00,,,0.00,WUHU216DAVISVP2,2013-03-03 09:59:00,
2013-03-03 02:05:00,61.7,27.2,29.99,WSW,244,10.0,13.0,27,0.00,,,0.00,WUHU216DAVISVP2,2013-03-03 10:05:00,
2013-03-03 02:10:00,61.6,26.2,29.99,WSW,238,10.0,15.0,26,0.00,,,0.00,WUHU216DAVISVP2,2013-03-03 10:10:00,
2013-03-03 02:15:00,61.4,26.0,29.99,SW,225,11.0,15.0,26,0.00,,,0.00,WUHU216DAVISVP2,2013-03-03 10:15:00,
2013-03-03 02:20:00,61.6,26.2,29.99,SW,221,10.0,15.0,26,0.00,,,0.00,WUHU216DAVISVP2,2013-03-03 10:20:00,
2013-03-03 02:25:00,61.5,25.2,29.98,SW,215,8.0,13.0,25,0.00,,,0.00,WUHU216DAVISVP2,2013-03-03 10:25:00,
2013-03-03 02:30:00,61.5,25.2,29.97,SW,221,9.0,13.0,25,0.00,,,0.00,WUHU216DAVISVP2,2013-03-03 10:30:00,
2013-03-03 02:35:00,61.4,24.1,29.97,SW,230,11.0,13.0,24,0.00,,,0.00,WUHU216DAVISVP2,2013-03-03 10:35:00,
2013-03-03 02:40:00,61.7,24.4,29.97,SW,223,8.0,15.0,24,0.00,,,0.00,WUHU216DAVISVP2,2013-03-03 10:40:00,
2013-03-03 02:45:00,61.8,24.5,29.96,SW,227,14.0,18.0,24,0.00,,,0.00,WUHU216DAVISVP2,2013-03-03 10:45:00,
2013-03-03 02:50:00,61.7,24.4,29.97,WSW,243,9.0,18.0,24,0.00,,,0.00,WUHU216DAVISVP2,2013-03-03 10:50:00,
2013-03-03 02:55:00,61.4,24.1,29.96,SW,232,13.0,18.0,24,0.00,,,0.00,WUHU216DAVISVP2,2013-03-03 10:55:00,
2013-03-03 03:00:00,61.2,24.0,29.97,WSW,240,11.0,18.0,24,0.00,,,0.00,WUHU216DAVISVP2,2013-03-03 11:00:00,
2013-03-03 03:05:00,61.1,23.9,29.97,WSW,238,10.0,15.0,24,0.00,,,0.00,WUHU216DAVISVP2,2013-03-03 11:05:00,
2013-03-03 03:10:00,61.0,23.8,29.97,SW,236,7.0,15.0,24,0.00,,,0.00,WUHU216DAVISVP2,2013-03-03 11:10:00,
2013-03-03 03:16:00,60.9,23.7,29.97,WSW,244,10.0,14.0,24,0.00,,,0.00,WUHU216DAVISVP2,2013-03-03 11:16:00,
2013-03-03 03:21:00,60.9,23.7,29.97,SW,236,11.0,16.0,24,0.00,,,0.00,WUHU216DAVISVP2,2013-03-03 11:21:00,
2013-03-03 03:26:00,60.9,23.7,29.96,WSW,237,8.0,16.0,24,0.00,,,0.00,WUHU216DAVISVP2,2013-03-03 11:26:00,
2013-03-03 03:31:00,60.7,23.5,29.97,WSW,238,12.0,16.0,24,0.00,,,0.00,WUHU216DAVISVP2,2013-03-03 11:31:00,
2013-03-03 03:36:00,60.7,23.5,29.96,SW,230,12.0,17.0,24,0.00,,,0.00,WUHU216DAVISVP2,2013-03-03 11:36:00,
2013-03-03 03:41:00,60.7,23.5,29.96,SW,236,12.0,17.0,24,0.00,,,0.00,WUHU216DAVISVP2,2013-03-03 11:41:00,
2013-03-03 03:46:00,60.6,23.6,29.96,SW,219,12.0,17.0,24,0.00,,,0.00,WUHU216DAVISVP2,2013-03-03 11:46:00,
2013-03-03 03:51:00,60.7,22.6,29.96,WSW,250,19.0,23.0,23,0.00,,,0.00,WUHU216DAVISVP2,2013-03-03 11:51:00,
2013-03-03 03:56:00,60.5,22.5,29.96,SW,236,9.0,23.0,23,0.00,,,0.00,WUHU216DAVISVP2,2013-03-03 11:56:00,
2013-03-03 04:01:00,60.0,21.0,29.96,SW,224,14.0,23.0,22,0.00,,,0.00,WUHU216DAVISVP2,2013-03-03 12:01:00,
2013-03-03 04:06:00,59.6,20.7,29.96,SW,224,13.0,23.0,22,0.00,,,0.00,WUHU216DAVISVP2,2013-03-03 12:06:00,
2013-03-03 04:11:00,59.5,19.5,29.96,WSW,239,10.0,21.0,21,0.00,,,0.00,WUHU216DAVISVP2,2013-03-03 12:11:00,
2013-03-03 04:17:00,59.3,19.3,29.96,SW,228,13.0,21.0,21,0.00,,,0.00,WUHU216DAVISVP2,2013-03-03 12:17:00,
2013-03-03 04:22:00,58.9,19.0,29.95,SW,236,10.0,21.0,21,0.00,,,0.00,WUHU216DAVISVP2,2013-03-03 12:22:00,
2013-03-03 04:27:00,58.5,19.7,29.95,SW,220,13.0,21.0,22,0.00,,,0.00,WUHU216DAVISVP2,2013-03-03 12:27:00,
2013-03-03 04:32:00,58.3,19.5,29.95,WSW,242,12.0,21.0,22,0.00,,,0.00,WUHU216DAVISVP2,2013-03-03 12:32:00,
2013-03-03 04:37:00,57.9,20.2,29.95,SW,234,12.0,18.0,23,0.00,,,0.00,WUHU216DAVISVP2,2013-03-03 12:37:00,
2013-03-03 04:42:00,57.6,19.9,29.95,SW,228,14.0,19.0,23,0.00,,,0.00,WUHU216DAVISVP2,2013-03-03 12:42:00,
2013-03-03 04:47:00,57.6,19.9,29.94,SSW,210,10.0,19.0,23,0.00,,,0.00,WUHU216DAVISVP2,2013-03-03 12:47:00,
2013-03-03 04:52:00,57.8,20.1,29.95,SW,222,15.0,19.0,23,0.00,,,0.00,WUHU216DAVISVP2,2013-03-03 12:52:00,
2013-03-03 04:57:00,57.8,20.1,29.95,SW,221,12.0,19.0,23,0.00,,,0.00,WUHU216DAVISVP2,2013-03-03 12:57:00,
2013-03-03 05:02:00,57.7,20.0,29.95,SW,221,12.0,19.0,23,0.00,,,0.00,WUHU216DAVISVP2,2013-03-03 13:02:00,
2013-03-03 05:07:00,57.5,19.9,29.95,SW,219,14.0,18.0,23,0.00,,,0.00,WUHU216DAVISVP2,2013-03-03 13:07:00,
2013-03-03 05:13:00,57.4,19.8,29.95,SW,229,14.0,20.0,23,0.00,,,0.00,WUHU216DAVISVP2,2013-03-03 13:13:00,
2013-03-03 05:18:00,57.0,20.4,29.95,SW,234,13.0,20.0,24,0.00,,,0.00,WUHU216DAVISVP2,2013-03-03 13:18:00,
2013-03-03 05:23:00,56.6,20.1,29.95,SW,232,13.0,22.0,24,0.00,,,0.00,WUHU216DAVISVP2,2013-03-03 13:23:00,
2013-03-03 05:28:00,56.4,19.9,29.95,SW,225,17.0,22.0,24,0.00,,,0.00,WUHU216DAVISVP2,2013-03-03 13:28:00,
2013-03-03 05:33:00,56.5,20.0,29.95,SW,219,11.0,22.0,24,0.00,,,0.00,WUHU216DAVISVP2,2013-03-03 13:33:00,
2013-03-03 05:38:00,56.2,19.7,29.94,SW,228,11.0,22.0,24,0.00,,,0.00,WUHU216DAVISVP2,2013-03-03 13:38:00,
2013-03-03 05:43:00,56.3,19.8,29.94,SW,221,8.0,19.0,24,0.00,,,0.00,WUHU216DAVISVP2,2013-03-03 13:43:00,
2013-03-03 05:48:00,56.4,20.8,29.94,SW,225,8.0,17.0,25,0.00,,,0.00,WUHU216DAVISVP2,2013-03-03 13:48:00,
2013-03-03 05:53:00,56.4,20.8,29.94,SSW,213,11.0,16.0,25,0.00,,,0.00,WUHU216DAVISVP2,2013-03-03 13:53:00,
2013-03-03 05:58:00,56.4,19.9,29.93,SW,221,12.0,16.0,24,0.00,,,0.00,WUHU216DAVISVP2,2013-03-03 13:58:00,
2013-03-03 06:03:00,56.3,20.8,29.94,WSW,255,4.0,14.0,25,0.00,,,0.00,WUHU216DAVISVP2,2013-03-03 14:03:00,
2013-03-03 06:08:00,56.4,20.8,29.94,SW,223,11.0,16.0,25,0.00,,,0.00,WUHU216DAVISVP2,2013-03-03 14:08:00,
2013-03-03 06:13:00,56.4,20.8,29.93,WSW,248,8.0,16.0,25,0.00,,,0.00,WUHU216DAVISVP2,2013-03-03 14:13:00,
2013-03-03 06:19:00,55.6,20.2,29.94,WSW,252,2.0,16.0,25,0.00,,,0.00,WUHU216DAVISVP2,2013-03-03 14:19:00,
2013-03-03 06:24:00,55.2,19.8,29.93,West,281,7.0,16.0,25,0.00,,,0.00,WUHU216DAVISVP2,2013-03-03 14:24:00,
2013-03-03 06:29:00,54.8,19.5,29.93,NNW,338,6.0,13.0,25,0.00,,,0.00,WUHU216DAVISVP2,2013-03-03 14:29:00,
2013-03-03 06:34:00,53.7,19.4,29.93,NNW,339,6.0,12.0,26,0.00,,,0.00,WUHU216DAVISVP2,2013-03-03 14:34:00,
2013-03-03 06:39:00,52.1,19.8,29.93,NNW,339,6.0,12.0,28,0.00,,,0.00,WUHU216DAVISVP2,2013-03-03 14:39:00,
2013-03-03 06:44:00,52.1,19.8,29.94,NNW,340,4.0,7.0,28,0.00,,,0.00,WUHU216DAVISVP2,2013-03-03 14:44:00,
2013-03-03 06:49:00,52.4,20.0,29.93,NNW,340,3.0,7.0,28,0.00,,,0.00,WUHU216DAVISVP2,2013-03-03 14:49:00,
2013-03-03 06:54:00,53.0,20.5,29.93,NNW,340,4.0,7.0,28,0.00,,,0.00,WUHU216DAVISVP2,2013-03-03 14:54:00,
2013-03-03 07:00:00,53.2,20.7,29.94,NNW,340,2.0,6.0,28,0.00,,,0.00,WUHU216DAVISVP2,2013-03-03 15:00:00,
2013-03-03 07:05:00,53.9,20.5,29.94,NNW,340,0.0,6.0,27,0.00,,,0.00,WUHU216DAVISVP2,2013-03-03 15:05:00,
2013-03-03 07:10:00,54.3,20.0,29.93,North,355,4.0,7.0,26,0.00,,,0.00,WUHU216DAVISVP2,2013-03-03 15:10:00,
2013-03-03 07:15:00,54.8,20.4,29.94,North,5,1.0,7.0,26,0.00,,,0.00,WUHU216DAVISVP2,2013-03-03 15:15:00,
2013-03-03 07:20:00,56.0,19.6,29.94,WSW,240,6.0,13.0,24,0.00,,,0.00,WUHU216DAVISVP2,2013-03-03 15:20:00,
2013-03-03 07:25:00,57.2,19.6,29.94,WSW,244,14.0,16.0,23,0.00,,,0.00,WUHU216DAVISVP2,2013-03-03 15:25:00,
2013-03-03 07:30:00,57.7,20.0,29.94,SW,229,18.0,19.0,23,0.00,,,0.00,WUHU216DAVISVP2,2013-03-03 15:30:00,
2013-03-03 07:35:00,58.4,19.6,29.94,WSW,242,17.0,23.0,22,0.00,,,0.00,WUHU216DAVISVP2,2013-03-03 15:35:00,
2013-03-03 07:40:00,58.8,19.9,29.94,SW,233,16.0,23.0,22,0.00,,,0.00,WUHU216DAVISVP2,2013-03-03 15:40:00,
2013-03-03 07:45:00,59.1,20.2,29.94,WSW,238,14.0,23.0,22,0.00,,,0.00,WUHU216DAVISVP2,2013-03-03 15:45:00,
2013-03-03 07:50:00,59.5,19.4,29.94,SW,223,14.0,23.0,21,0.00,,,0.00,WUHU216DAVISVP2,2013-03-03 15:50:00,
2013-03-03 07:55:00,60.0,19.9,29.94,SW,230,17.0,22.0,21,0.00,,,0.00,WUHU216DAVISVP2,2013-03-03 15:55:00,
2013-03-03 08:01:00,60.0,19.9,29.94,SW,226,11.0,21.0,21,0.00,,,0.00,WUHU216DAVISVP2,2013-03-03 16:01:00,
2013-03-03 08:06:00,59.8,19.7,29.94,SW,232,18.0,25.0,21,0.00,,,0.00,WUHU216DAVISVP2,2013-03-03 16:06:00,
2013-03-03 08:11:00,59.9,20.8,29.94,SW,234,19.0,25.0,22,0.00,,,0.00,WUHU216DAVISVP2,2013-03-03 16:11:00,
2013-03-03 08:16:00,60.2,21.1,29.93,WSW,238,17.0,25.0,22,0.00,,,0.00,WUHU216DAVISVP2,2013-03-03 16:16:00,
2013-03-03 08:21:00,60.5,21.3,29.94,SW,221,14.0,25.0,22,0.00,,,0.00,WUHU216DAVISVP2,2013-03-03 16:21:00,
2013-03-03 08:26:00,60.7,21.5,29.93,WSW,241,15.0,23.0,22,0.00,,,0.00,WUHU216DAVISVP2,2013-03-03 16:26:00,
2013-03-03 08:31:00,60.7,21.5,29.93,SW,232,15.0,23.0,22,0.00,,,0.00,WUHU216DAVISVP2,2013-03-03 16:31:00,
2013-03-03 08:36:00,60.8,21.6,29.93,SW,215,15.0,23.0,22,0.00,,,0.00,WUHU216DAVISVP2,2013-03-03 16:36:00,
2013-03-03 08:41:00,61.2,21.9,29.94,SW,230,16.0,23.0,22,0.00,,,0.00,WUHU216DAVISVP2,2013-03-03 16:41:00,
2013-03-03 08:46:00,61.2,21.9,29.94,SW,217,14.0,21.0,22,0.00,,,0.00,WUHU216DAVISVP2,2013-03-03 16:46:00,
2013-03-03 08:51:00,61.2,21.9,29.93,SW,215,13.0,21.0,22,0.00,,,0.00,WUHU216DAVISVP2,2013-03-03 16:51:00,
2013-03-03 08:56:00,61.4,23.1,29.93,SSW,213,7.0,21.0,23,0.00,,,0.00,WUHU216DAVISVP2,2013-03-03 16:56:00,
2013-03-03 09:02:00,61.8,23.5,29.93,SSW,206,16.0,18.0,23,0.00,,,0.00,WUHU216DAVISVP2,2013-03-03 17:02:00,
2013-03-03 09:07:00,62.1,23.7,29.93,SSW,201,12.0,19.0,23,0.00,,,0.00,WUHU216DAVISVP2,2013-03-03 17:07:00,
2013-03-03 09:12:00,62.3,23.9,29.92,SW,218,14.0,19.0,23,0.00,,,0.00,WUHU216DAVISVP2,2013-03-03 17:12:00,
2013-03-03 09:17:00,62.3,23.9,29.92,SW,225,13.0,19.0,23,0.00,,,0.00,WUHU216DAVISVP2,2013-03-03 17:17:00,
2013-03-03 09:22:00,61.8,23.5,29.92,SW,230,14.0,20.0,23,0.00,,,0.00,WUHU216DAVISVP2,2013-03-03 17:22:00,
2013-03-03 09:27:00,61.8,24.5,29.92,SSW,213,16.0,20.0,24,0.00,,,0.00,WUHU216DAVISVP2,2013-03-03 17:27:00,
2013-03-03 09:32:00,61.9,24.6,29.91,SSW,209,11.0,19.0,24,0.00,,,0.00,WUHU216DAVISVP2,2013-03-03 17:32:00,
2013-03-03 09:37:00,62.3,25.9,29.91,SSW,196,9.0,19.0,25,0.00,,,0.00,WUHU216DAVISVP2,2013-03-03 17:37:00,
2013-03-03 09:42:00,62.5,26.0,29.91,SSW,210,14.0,19.0,25,0.00,,,0.00,WUHU216DAVISVP2,2013-03-03 17:42:00,
2013-03-03 09:47:00,62.8,26.3,29.91,SSW,197,12.0,19.0,25,0.00,,,0.00,WUHU216DAVISVP2,2013-03-03 17:47:00,
2013-03-03 09:52:00,63.0,26.5,29.91,SW,215,11.0,22.0,25,0.00,,,0.00,WUHU216DAVISVP2,2013-03-03 17:52:00,
2013-03-03 09:58:00,63.6,26.0,29.91,SSW,206,14.0,22.0,24,0.00,,,0.00,WUHU216DAVISVP2,2013-03-03 17:58:00,
2013-03-03 10:03:00,63.8,26.2,29.90,SW,217,8.0,22.0,24,0.00,,,0.00,WUHU216DAVISVP2,2013-03-03 18:03:00,
2013-03-03 10:08:00,64.1,27.4,29.91,SW,217,17.0,22.0,25,0.00,,,0.00,WUHU216DAVISVP2,2013-03-03 18:08:00,
2013-03-03 10:13:00,64.3,27.6,29.91,WSW,243,10.0,24.0,25,0.00,,,0.00,WUHU216DAVISVP2,2013-03-03 18:13:00,
2013-03-03 10:18:00,64.3,27.6,29.91,SSW,204,9.0,24.0,25,0.00,,,0.00,WUHU216DAVISVP2,2013-03-03 18:18:00,
2013-03-03 10:23:00,64.7,27.9,29.91,SW,217,9.0,24.0,25,0.00,,,0.00,WUHU216DAVISVP2,2013-03-03 18:23:00,
2013-03-03 10:28:00,65.2,27.4,29.90,SW,214,13.0,24.0,24,0.00,,,0.00,WUHU216DAVISVP2,2013-03-03 18:28:00,
2013-03-03 10:33:00,65.1,28.3,29.91,SW,221,14.0,31.0,25,0.00,,,0.00,WUHU216DAVISVP2,2013-03-03 18:33:00,
2013-03-03 10:38:00,66.0,28.0,29.90,SW,229,12.0,31.0,24,0.00,,,0.00,WUHU216DAVISVP2,2013-03-03 18:38:00,
2013-03-03 10:43:00,65.5,27.6,29.90,WSW,241,16.0,31.0,24,0.00,,,0.00,WUHU216DAVISVP2,2013-03-03 18:43:00,
2013-03-03 10:48:00,65.5,27.6,29.89,SSW,192,12.0,31.0,24,0.00,,,0.00,WUHU216DAVISVP2,2013-03-03 18:48:00,
2013-03-03 10:54:00,65.6,27.7,29.89,SW,223,16.0,28.0,24,0.00,,,0.00,WUHU216DAVISVP2,2013-03-03 18:54:00,
2013-03-03 10:59:00,66.1,28.2,29.89,South,190,17.0,28.0,24,0.00,,,0.00,WUHU216DAVISVP2,2013-03-03 18:59:00,
2013-03-03 11:04:00,66.2,27.3,29.89,SSW,203,17.0,28.0,23,0.00,,,0.00,WUHU216DAVISVP2,2013-03-03 19:04:00,
2013-03-03 11:09:00,66.6,28.6,29.89,SSW,200,26.0,31.0,24,0.00,,,0.00,WUHU216DAVISVP2,2013-03-03 19:09:00,
2013-03-03 11:14:00,66.6,28.6,29.88,SSW,200,22.0,31.0,24,0.00,,,0.00,WUHU216DAVISVP2,2013-03-03 19:14:00,
2013-03-03 11:19:00,66.4,28.4,29.88,SW,226,28.0,31.0,24,0.00,,,0.00,WUHU216DAVISVP2,2013-03-03 19:19:00,
2013-03-03 11:24:00,66.7,28.6,29.88,SW,218,18.0,30.0,24,0.00,,,0.00,WUHU216DAVISVP2,2013-03-03 19:24:00,
2013-03-03 11:29:00,66.4,28.4,29.87,SW,222,17.0,30.0,24,0.00,,,0.00,WUHU216DAVISVP2,2013-03-03 19:29:00,
2013-03-03 11:34:00,66.4,27.4,29.87,SW,217,23.0,28.0,23,0.00,,,0.00,WUHU216DAVISVP2,2013-03-03 19:34:00,
2013-03-03 11:39:00,66.4,28.4,29.87,SW,217,13.0,29.0,24,0.00,,,0.00,WUHU216DAVISVP2,2013-03-03 19:39:00,
2013-03-03 11:44:00,66.8,28.7,29.87,WSW,242,21.0,29.0,24,0.00,,,0.00,WUHU216DAVISVP2,2013-03-03 19:44:00,
2013-03-03 11:49:00,67.1,27.9,29.86,SW,227,16.0,29.0,23,0.00,,,0.00,WUHU216DAVISVP2,2013-03-03 19:49:00,
2013-03-03 11:55:00,67.5,29.4,29.85,SW,229,17.0,29.0,24,0.00,,,0.00,WUHU216DAVISVP2,2013-03-03 19:55:00,
2013-03-03 12:00:00,67.7,29.6,29.85,SW,226,9.0,28.0,24,0.00,,,0.00,WUHU216DAVISVP2,2013-03-03 20:00:00,
2013-03-03 12:05:00,67.5,29.4,29.85,WSW,238,17.0,28.0,24,0.00,,,0.00,WUHU216DAVISVP2,2013-03-03 20:05:00,
2013-03-03 12:10:00,67.5,29.3,29.85,SW,221,20.0,27.0,24,0.00,,,0.00,WUHU216DAVISVP2,2013-03-03 20:10:00,
2013-03-03 12:15:00,67.1,29.0,29.85,WSW,254,21.0,29.0,24,0.00,,,0.00,WUHU216DAVISVP2,2013-03-03 20:15:00,
2013-03-03 12:20:00,67.0,29.9,29.85,WSW,241,25.0,33.0,25,0.00,,,0.00,WUHU216DAVISVP2,2013-03-03 20:20:00,
2013-03-03 12:25:00,66.8,29.7,29.85,SW,220,23.0,33.0,25,0.00,,,0.00,WUHU216DAVISVP2,2013-03-03 20:25:00,
2013-03-03 12:30:00,66.4,29.4,29.84,SW,230,20.0,33.0,25,0.00,,,0.00,WUHU216DAVISVP2,2013-03-03 20:30:00,
2013-03-03 12:35:00,66.7,30.7,29.84,SW,233,23.0,32.0,26,0.00,,,0.00,WUHU216DAVISVP2,2013-03-03 20:35:00,
2013-03-03 12:40:00,66.6,30.6,29.84,SW,218,19.0,33.0,26,0.00,,,0.00,WUHU216DAVISVP2,2013-03-03 20:40:00,
2013-03-03 12:45:00,66.5,31.5,29.84,SW,231,15.0,33.0,27,0.00,,,0.00,WUHU216DAVISVP2,2013-03-03 20:45:00,
2013-03-03 12:50:00,66.7,32.4,29.84,SW,226,22.0,33.0,28,0.00,,,0.00,WUHU216DAVISVP2,2013-03-03 20:50:00,
2013-03-03 12:55:00,66.9,32.5,29.84,SW,233,12.0,33.0,28,0.00,,,0.00,WUHU216DAVISVP2,2013-03-03 20:55:00,
2013-03-03 13:01:00,66.8,32.5,29.84,SW,236,14.0,25.0,28,0.00,,,0.00,WUHU216DAVISVP2,2013-03-03 21:01:00,
2013-03-03 13:06:00,66.4,33.0,29.83,WSW,252,10.0,28.0,29,0.00,,,0.00,WUHU216DAVISVP2,2013-03-03 21:06:00,
2013-03-03 13:11:00,67.0,33.5,29.84,SW,229,15.0,28.0,29,0.00,,,0.00,WUHU216DAVISVP2,2013-03-03 21:11:00,
2013-03-03 13:16:00,67.0,33.7,29.83,WSW,244,17.0,30.0,29,0.00,,,0.00,WUHU216DAVISVP2,2013-03-03 21:16:00,
2013-03-03 13:21:00,66.5,34.1,29.83,SW,231,17.0,35.0,30,0.00,,,0.00,WUHU216DAVISVP2,2013-03-03 21:21:00,
2013-03-03 13:26:00,66.5,33.1,29.83,SW,217,18.0,35.0,29,0.00,,,0.00,WUHU216DAVISVP2,2013-03-03 21:26:00,
2013-03-03 13:31:00,66.1,33.6,29.83,WSW,244,16.0,35.0,30,0.00,,,0.00,WUHU216DAVISVP2,2013-03-03 21:31:00,
2013-03-03 13:36:00,66.2,33.6,29.83,SW,228,26.0,34.0,30,0.00,,,0.00,WUHU216DAVISVP2,2013-03-03 21:36:00,
2013-03-03 13:41:00,66.2,34.5,29.83,SW,234,26.0,34.0,31,0.00,,,0.00,WUHU216DAVISVP2,2013-03-03 21:41:00,
2013-03-03 13:46:00,66.4,34.6,29.83,WSW,244,16.0,33.0,31,0.00,,,0.00,WUHU216DAVISVP2,2013-03-03 21:46:00,
2013-03-03 13:51:00,65.9,34.4,29.83,WSW,241,22.0,33.0,31,0.00,,,0.00,WUHU216DAVISVP2,2013-03-03 21:51:00,
2013-03-03 13:57:00,65.7,35.0,29.83,SW,234,18.0,33.0,32,0.00,,,0.00,WUHU216DAVISVP2,2013-03-03 21:57:00,
2013-03-03 14:02:00,65.7,35.0,29.83,SW,217,18.0,32.0,32,0.00,,,0.00,WUHU216DAVISVP2,2013-03-03 22:02:00,
2013-03-03 14:07:00,65.8,34.9,29.83,SW,216,18.0,32.0,32,0.00,,,0.00,WUHU216DAVISVP2,2013-03-03 22:07:00,
2013-03-03 14:12:00,66.0,35.1,29.83,SSW,212,12.0,32.0,32,0.00,,,0.00,WUHU216DAVISVP2,2013-03-03 22:12:00,
2013-03-03 14:17:00,66.1,35.2,29.83,SW,217,18.0,32.0,32,0.00,,,0.00,WUHU216DAVISVP2,2013-03-03 22:17:00,
2013-03-03 14:23:00,65.9,35.0,29.82,SW,228,15.0,24.0,32,0.00,,,0.00,WUHU216DAVISVP2,2013-03-03 22:23:00,
2013-03-03 14:28:00,66.1,35.2,29.83,WSW,240,16.0,24.0,32,0.00,,,0.00,WUHU216DAVISVP2,2013-03-03 22:28:00,
2013-03-03 14:33:00,66.7,34.9,29.83,SW,215,13.0,22.0,31,0.00,,,0.00,WUHU216DAVISVP2,2013-03-03 22:33:00,
2013-03-03 14:38:00,66.0,34.3,29.83,SW,233,16.0,27.0,31,0.00,,,0.00,WUHU216DAVISVP2,2013-03-03 22:38:00,
2013-03-03 14:44:00,66.3,34.6,29.83,WSW,248,20.0,27.0,31,0.00,,,0.00,WUHU216DAVISVP2,2013-03-03 22:44:00,
2013-03-03 14:49:00,66.2,34.5,29.83,WSW,257,12.0,27.0,31,0.00,,,0.00,WUHU216DAVISVP2,2013-03-03 22:49:00,
2013-03-03 14:55:00,65.9,34.2,29.83,SW,227,14.0,26.0,31,0.00,,,0.00,WUHU216DAVISVP2,2013-03-03 22:55:00,
2013-03-03 15:00:00,66.0,34.3,29.83,SW,231,20.0,26.0,31,0.00,,,0.00,WUHU216DAVISVP2,2013-03-03 23:00:00,
2013-03-03 15:05:00,65.7,34.0,29.83,SW,232,12.0,26.0,31,0.00,,,0.00,WUHU216DAVISVP2,2013-03-03 23:05:00,
2013-03-03 15:10:00,65.8,34.1,29.83,SW,229,17.0,24.0,31,0.00,,,0.00,WUHU216DAVISVP2,2013-03-03 23:10:00,
2013-03-03 15:15:00,65.2,33.6,29.83,SW,235,16.0,28.0,31,0.00,,,0.00,WUHU216DAVISVP2,2013-03-03 23:15:00,
2013-03-03 15:20:00,65.2,33.6,29.83,SW,234,17.0,28.0,31,0.00,,,0.00,WUHU216DAVISVP2,2013-03-03 23:20:00,
2013-03-03 15:25:00,64.9,34.1,29.83,SW,233,11.0,28.0,32,0.00,,,0.00,WUHU216DAVISVP2,2013-03-03 23:25:00,
2013-03-03 15:30:00,64.7,33.2,29.83,WSW,247,24.0,28.0,31,0.00,,,0.00,WUHU216DAVISVP2,2013-03-03 23:30:00,
2013-03-03 15:36:00,64.6,33.9,29.83,WSW,257,19.0,27.0,32,0.00,,,0.00,WUHU216DAVISVP2,2013-03-03 23:36:00,
2013-03-03 15:41:00,64.7,33.2,29.83,SW,223,11.0,27.0,31,0.00,,,0.00,WUHU216DAVISVP2,2013-03-03 23:41:00,
2013-03-03 15:46:00,64.5,33.8,29.83,WSW,237,12.0,27.0,32,0.00,,,0.00,WUHU216DAVISVP2,2013-03-03 23:46:00,
2013-03-03 15:51:00,64.2,33.5,29.83,WSW,242,13.0,20.0,32,0.00,,,0.00,WUHU216DAVISVP2,2013-03-03 23:51:00,
2013-03-03 15:56:00,64.9,34.1,29.83,West,269,9.0,20.0,32,0.00,,,0.00,WUHU216DAVISVP2,2013-03-03 23:56:00,
2013-03-03 16:01:00,64.7,33.9,29.83,SW,229,12.0,20.0,32,0.00,,,0.00,WUHU216DAVISVP2,2013-03-04 00:01:00,
2013-03-03 16:06:00,64.1,34.2,29.83,SW,236,16.0,21.0,33,0.00,,,0.00,WUHU216DAVISVP2,2013-03-04 00:06:00,
2013-03-03 16:11:00,63.9,34.0,29.83,WSW,241,12.0,21.0,33,0.00,,,0.00,WUHU216DAVISVP2,2013-03-04 00:11:00,
2013-03-03 16:16:00,63.8,34.7,29.83,WSW,241,7.0,21.0,34,0.00,,,0.00,WUHU216DAVISVP2,2013-03-04 00:16:00,
2013-03-03 16:21:00,63.5,34.4,29.83,SW,232,12.0,21.0,34,0.00,,,0.00,WUHU216DAVISVP2,2013-03-04 00:21:00,
2013-03-03 16:26:00,63.1,34.1,29.83,SW,229,12.0,21.0,34,0.00,,,0.00,WUHU216DAVISVP2,2013-03-04 00:26:00,
2013-03-03 16:31:00,62.7,34.4,29.83,SW,224,9.0,18.0,35,0.00,,,0.00,WUHU216DAVISVP2,2013-03-04 00:31:00,
2013-03-03 16:37:00,62.6,34.4,29.83,WSW,240,10.0,17.0,35,0.00,,,0.00,WUHU216DAVISVP2,2013-03-04 00:37:00,
2013-03-03 16:42:00,62.5,33.5,29.83,WSW,243,8.0,17.0,34,0.00,,,0.00,WUHU216DAVISVP2,2013-03-04 00:42:00,
2013-03-03 16:47:00,62.4,33.4,29.83,SW,236,8.0,16.0,34,0.00,,,0.00,WUHU216DAVISVP2,2013-03-04 00:47:00,
2013-03-03 16:52:00,62.4,32.7,29.83,SW,224,10.0,16.0,33,0.00,,,0.00,WUHU216DAVISVP2,2013-03-04 00:52:00,
2013-03-03 16:57:00,62.1,33.2,29.83,SW,229,9.0,16.0,34,0.00,,,0.00,WUHU216DAVISVP2,2013-03-04 00:57:00,
2013-03-03 17:02:00,61.7,33.6,29.83,SW,219,9.0,17.0,35,0.00,,,0.00,WUHU216DAVISVP2,2013-03-04 01:02:00,
2013-03-03 17:07:00,61.4,34.0,29.83,SSW,206,9.0,17.0,36,0.00,,,0.00,WUHU216DAVISVP2,2013-03-04 01:07:00,
2013-03-03 17:12:00,61.1,33.7,29.83,SW,236,12.0,17.0,36,0.00,,,0.00,WUHU216DAVISVP2,2013-03-04 01:12:00,
2013-03-03 17:17:00,60.9,34.3,29.83,SSW,196,11.0,20.0,37,0.00,,,0.00,WUHU216DAVISVP2,2013-03-04 01:17:00,
2013-03-03 17:22:00,60.7,34.1,29.83,SSW,206,12.0,20.0,37,0.00,,,0.00,WUHU216DAVISVP2,2013-03-04 01:22:00,
2013-03-03 17:28:00,60.5,34.6,29.83,SW,216,7.0,20.0,38,0.00,,,0.00,WUHU216DAVISVP2,2013-03-04 01:28:00,
2013-03-03 17:33:00,60.4,34.5,29.83,SW,219,11.0,16.0,38,0.00,,,0.00,WUHU216DAVISVP2,2013-03-04 01:33:00,
2013-03-03 17:38:00,60.4,34.5,29.84,SW,217,11.0,16.0,38,0.00,,,0.00,WUHU216DAVISVP2,2013-03-04 01:38:00,
2013-03-03 17:43:00,60.3,34.4,29.84,SW,235,7.0,16.0,38,0.00,,,0.00,WUHU216DAVISVP2,2013-03-04 01:43:00,
2013-03-03 17:48:00,60.1,34.9,29.84,SW,225,9.0,16.0,39,0.00,,,0.00,WUHU216DAVISVP2,2013-03-04 01:48:00,
2013-03-03 17:53:00,60.0,34.1,29.84,SW,225,7.0,16.0,38,0.00,,,0.00,WUHU216DAVISVP2,2013-03-04 01:53:00,
2013-03-03 17:58:00,60.0,34.1,29.84,SW,234,10.0,14.0,38,0.00,,,0.00,WUHU216DAVISVP2,2013-03-04 01:58:00,
2013-03-03 18:04:00,59.9,34.0,29.84,SW,232,6.0,13.0,38,0.00,,,0.00,WUHU216DAVISVP2,2013-03-04 02:04:00,
2013-03-03 18:09:00,59.8,33.9,29.84,SW,230,9.0,13.0,38,0.00,,,0.00,WUHU216DAVISVP2,2013-03-04 02:09:00,
2013-03-03 18:14:00,59.6,33.8,29.84,SW,229,11.0,14.0,38,0.00,,,0.00,WUHU216DAVISVP2,2013-03-04 02:14:00,
2013-03-03 18:19:00,59.5,33.7,29.84,SW,232,7.0,15.0,38,0.00,,,0.00,WUHU216DAVISVP2,2013-03-04 02:19:00,
2013-03-03 18:24:00,59.3,34.2,29.84,SW,219,11.0,15.0,39,0.00,,,0.00,WUHU216DAVISVP2,2013-03-04 02:24:00,
2013-03-03 18:29:00,59.1,34.6,29.84,SW,219,11.0,15.0,40,0.00,,,0.00,WUHU216DAVISVP2,2013-03-04 02:29:00,
2013-03-03 18:34:00,58.9,33.8,29.84,WSW,238,8.0,14.0,39,0.00,,,0.00,WUHU216DAVISVP2,2013-03-04 02:34:00,
2013-03-03 18:39:00,58.6,33.5,29.85,West,277,6.0,14.0,39,0.00,,,0.00,WUHU216DAVISVP2,2013-03-04 02:39:00,
2013-03-03 18:45:00,57.8,32.8,29.85,WNW,285,6.0,12.0,39,0.00,,,0.00,WUHU216DAVISVP2,2013-03-04 02:45:00,
2013-03-03 18:50:00,57.3,33.0,29.85,West,271,6.0,10.0,40,0.00,,,0.00,WUHU216DAVISVP2,2013-03-04 02:50:00,
2013-03-03 18:55:00,57.5,33.2,29.85,WNW,300,9.0,15.0,40,0.00,,,0.00,WUHU216DAVISVP2,2013-03-04 02:55:00,
2013-03-03 19:00:00,57.8,33.5,29.85,NW,315,14.0,18.0,40,0.00,,,0.00,WUHU216DAVISVP2,2013-03-04 03:00:00,
2013-03-03 19:05:00,57.8,33.5,29.85,NW,315,16.0,18.0,40,0.00,,,0.00,WUHU216DAVISVP2,2013-03-04 03:05:00,
2013-03-03 19:10:00,57.7,33.4,29.86,WNW,301,14.0,19.0,40,0.00,,,0.00,WUHU216DAVISVP2,2013-03-04 03:10:00,
2013-03-03 19:15:00,57.4,33.7,29.85,WNW,289,13.0,19.0,41,0.00,,,0.00,WUHU216DAVISVP2,2013-03-04 03:15:00,
2013-03-03 19:20:00,57.3,33.6,29.85,WNW,300,12.0,21.0,41,0.00,,,0.00,WUHU216DAVISVP2,2013-03-04 03:20:00,
2013-03-03 19:26:00,57.3,33.6,29.86,NW,317,17.0,23.0,41,0.00,,,0.00,WUHU216DAVISVP2,2013-03-04 03:26:00,
2013-03-03 19:31:00,57.4,33.7,29.86,NW,314,24.0,25.0,41,0.00,,,0.00,WUHU216DAVISVP2,2013-03-04 03:31:00,
2013-03-03 19:36:00,57.3,33.6,29.86,NW,319,16.0,25.0,41,0.00,,,0.00,WUHU216DAVISVP2,2013-03-04 03:36:00,
2013-03-03 19:41:00,57.5,33.8,29.86,WNW,295,17.0,25.0,41,0.00,,,0.00,WUHU216DAVISVP2,2013-03-04 03:41:00,
2013-03-03 19:46:00,57.6,33.9,29.86,WNW,301,24.0,26.0,41,0.00,,,0.00,WUHU216DAVISVP2,2013-03-04 03:46:00,
2013-03-03 19:51:00,57.5,33.8,29.86,WNW,290,23.0,26.0,41,0.00,,,0.00,WUHU216DAVISVP2,2013-03-04 03:51:00,
2013-03-03 19:56:00,57.4,33.7,29.85,WNW,284,17.0,26.0,41,0.00,,,0.00,WUHU216DAVISVP2,2013-03-04 03:56:00,
2013-03-03 20:01:00,57.6,33.9,29.84,West,263,24.0,34.0,41,0.00,,,0.00,WUHU216DAVISVP2,2013-03-04 04:01:00,
2013-03-03 20:07:00,57.7,33.4,29.83,West,274,24.0,34.0,40,0.00,,,0.00,WUHU216DAVISVP2,2013-03-04 04:07:00,
2013-03-03 20:12:00,57.5,33.2,29.83,West,263,27.0,34.0,40,0.00,,,0.00,WUHU216DAVISVP2,2013-03-04 04:12:00,
2013-03-03 20:17:00,57.7,33.4,29.83,West,265,24.0,34.0,40,0.00,,,0.00,WUHU216DAVISVP2,2013-03-04 04:17:00,
2013-03-03 20:22:00,57.8,33.5,29.83,West,266,32.0,37.0,40,0.00,,,0.00,WUHU216DAVISVP2,2013-03-04 04:22:00,
2013-03-03 20:27:00,57.6,34.1,29.83,West,267,20.0,37.0,41,0.00,,,0.00,WUHU216DAVISVP2,2013-03-04 04:27:00,
2013-03-03 20:32:00,57.4,33.9,29.82,West,265,23.0,37.0,41,0.00,,,0.00,WUHU216DAVISVP2,2013-03-04 04:32:00,
2013-03-03 20:37:00,57.6,33.3,29.82,WSW,258,28.0,37.0,40,0.00,,,0.00,WUHU216DAVISVP2,2013-03-04 04:37:00,
2013-03-03 20:42:00,57.4,33.1,29.82,West,262,22.0,35.0,40,0.00,,,0.00,WUHU216DAVISVP2,2013-03-04 04:42:00,
2013-03-03 20:47:00,57.2,32.9,29.82,West,280,19.0,35.0,40,0.00,,,0.00,WUHU216DAVISVP2,2013-03-04 04:47:00,
2013-03-03 20:52:00,57.1,32.8,29.82,West,262,22.0,35.0,40,0.00,,,0.00,WUHU216DAVISVP2,2013-03-04 04:52:00,
2013-03-03 20:57:00,57.1,32.8,29.82,West,266,23.0,32.0,40,0.00,,,0.00,WUHU216DAVISVP2,2013-03-04 04:57:00,
2013-03-03 21:03:00,57.1,32.2,29.82,West,281,13.0,32.0,39,0.00,,,0.00,WUHU216DAVISVP2,2013-03-04 05:03:00,
2013-03-03 21:08:00,57.1,32.4,29.83,WSW,253,25.0,32.0,39,0.00,,,0.00,WUHU216DAVISVP2,2013-03-04 05:08:00,
2013-03-03 21:13:00,57.3,32.5,29.83,West,264,22.0,32.0,39,0.00,,,0.00,WUHU216DAVISVP2,2013-03-04 05:13:00,
2013-03-03 21:18:00,57.3,31.9,29.83,West,263,17.0,31.0,38,0.00,,,0.00,WUHU216DAVISVP2,2013-03-04 05:18:00,
2013-03-03 21:23:00,57.3,31.9,29.82,West,261,25.0,31.0,38,0.00,,,0.00,WUHU216DAVISVP2,2013-03-04 05:23:00,
2013-03-03 21:28:00,57.2,31.6,29.82,WNW,287,19.0,30.0,38,0.00,,,0.00,WUHU216DAVISVP2,2013-03-04 05:28:00,
2013-03-03 21:33:00,57.3,31.0,29.82,West,261,22.0,30.0,37,0.00,,,0.00,WUHU216DAVISVP2,2013-03-04 05:33:00,
2013-03-03 21:38:00,57.3,31.0,29.82,West,259,25.0,30.0,37,0.00,,,0.00,WUHU216DAVISVP2,2013-03-04 05:38:00,
2013-03-03 21:43:00,57.4,31.1,29.82,West,271,14.0,30.0,37,0.00,,,0.00,WUHU216DAVISVP2,2013-03-04 05:43:00,
2013-03-03 21:48:00,57.3,31.0,29.82,West,279,15.0,30.0,37,0.00,,,0.00,WUHU216DAVISVP2,2013-03-04 05:48:00,
2013-03-03 21:54:00,57.3,31.0,29.82,West,263,14.0,30.0,37,0.00,,,0.00,WUHU216DAVISVP2,2013-03-04 05:54:00,
2013-03-03 21:59:00,57.2,30.3,29.83,West,269,17.0,30.0,36,0.00,,,0.00,WUHU216DAVISVP2,2013-03-04 05:59:00,
2013-03-03 22:04:00,57.2,31.1,29.82,WNW,284,16.0,24.0,37,0.00,,,0.00,WUHU216DAVISVP2,2013-03-04 06:04:00,
2013-03-03 22:09:00,57.2,31.1,29.82,SW,236,14.0,27.0,37,0.00,,,0.00,WUHU216DAVISVP2,2013-03-04 06:09:00,
2013-03-03 22:14:00,57.0,31.0,29.82,WSW,251,19.0,27.0,37,0.00,,,0.00,WUHU216DAVISVP2,2013-03-04 06:14:00,
2013-03-03 22:19:00,56.7,30.7,29.82,West,266,13.0,27.0,37,0.00,,,0.00,WUHU216DAVISVP2,2013-03-04 06:19:00,
2013-03-03 22:24:00,56.8,30.6,29.82,West,271,10.0,27.0,37,0.00,,,0.00,WUHU216DAVISVP2,2013-03-04 06:24:00,
2013-03-03 22:29:00,56.6,31.1,29.82,West,274,8.0,25.0,38,0.00,,,0.00,WUHU216DAVISVP2,2013-03-04 06:29:00,
2013-03-03 22:34:00,56.6,31.1,29.82,WSW,248,10.0,25.0,38,0.00,,,0.00,WUHU216DAVISVP2,2013-03-04 06:34:00,
2013-03-03 22:39:00,56.3,31.5,29.82,West,279,16.0,25.0,39,0.00,,,0.00,WUHU216DAVISVP2,2013-03-04 06:39:00,
2013-03-03 22:45:00,56.4,31.6,29.83,West,279,13.0,25.0,39,0.00,,,0.00,WUHU216DAVISVP2,2013-03-04 06:45:00,
2013-03-03 22:50:00,56.3,31.5,29.83,West,265,16.0,25.0,39,0.00,,,0.00,WUHU216DAVISVP2,2013-03-04 06:50:00,
2013-03-03 22:55:00,56.3,31.5,29.83,WSW,254,19.0,25.0,39,0.00,,,0.00,WUHU216DAVISVP2,2013-03-04 06:55:00,
2013-03-03 23:00:00,56.3,31.5,29.83,WSW,255,12.0,25.0,39,0.00,,,0.00,WUHU216DAVISVP2,2013-03-04 07:00:00,
2013-03-03 23:05:00,56.4,31.7,29.83,West,264,14.0,25.0,39,0.00,,,0.00,WUHU216DAVISVP2,2013-03-04 07:05:00,
2013-03-03 23:10:00,56.3,31.6,29.83,West,262,19.0,26.0,39,0.00,,,0.00,WUHU216DAVISVP2,2013-03-04 07:10:00,
2013-03-03 23:15:00,56.2,31.5,29.83,West,273,14.0,26.0,39,0.00,,,0.00,WUHU216DAVISVP2,2013-03-04 07:15:00,
2013-03-03 23:20:00,56.4,31.7,29.84,WSW,253,14.0,26.0,39,0.00,,,0.00,WUHU216DAVISVP2,2013-03-04 07:20:00,
2013-03-03 23:25:00,56.5,31.6,29.83,West,271,17.0,29.0,39,0.00,,,0.00,WUHU216DAVISVP2,2013-03-04 07:25:00,
2013-03-03 23:31:00,56.5,31.6,29.84,WSW,250,20.0,30.0,39,0.00,,,0.00,WUHU216DAVISVP2,2013-03-04 07:31:00,
2013-03-03 23:36:00,56.3,32.1,29.83,WSW,256,28.0,30.0,40,0.00,,,0.00,WUHU216DAVISVP2,2013-03-04 07:36:00,
2013-03-03 23:41:00,56.4,31.6,29.83,WSW,254,16.0,32.0,39,0.00,,,0.00,WUHU216DAVISVP2,2013-03-04 07:41:00,
2013-03-03 23:46:00,56.3,31.5,29.84,West,277,17.0,33.0,39,0.00,,,0.00,WUHU216DAVISVP2,2013-03-04 07:46:00,
2013-03-03 23:51:00,56.2,32.0,29.84,West,281,19.0,33.0,40,0.00,,,0.00,WUHU216DAVISVP2,2013-03-04 07:51:00,
2013-03-03 23:56:00,56.1,31.9,29.84,West,277,20.0,33.0,40,0.00,,,0.00,WUHU216DAVISVP2,2013-03-04 07:56:00,